sensor_id;sensor_type;location;lat;lon;timestamp;P1;durP1;ratioP1;P2;durP2;ratioP2
297;SDS011;133;49.626;9.680;2023-06-22T00:00:50;11.57;;;10.90;;
297;SDS011;133;49.626;9.680;2023-06-22T00:03:19;16.13;;;11.67;;
297;SDS011;133;49.626;9.680;2023-06-22T00:05:47;14.10;;;12.13;;
297;SDS011;133;49.626;9.680;2023-06-22T00:08:13;14.87;;;12.23;;
297;SDS011;133;49.626;9.680;2023-06-22T00:10:39;11.90;;;11.17;;
297;SDS011;133;49.626;9.680;2023-06-22T00:13:06;15.93;;;11.77;;
297;SDS011;133;49.626;9.680;2023-06-22T00:15:32;13.93;;;12.40;;
297;SDS011;133;49.626;9.680;2023-06-22T00:17:58;13.87;;;11.90;;
297;SDS011;133;49.626;9.680;2023-06-22T00:20:24;14.33;;;12.70;;
297;SDS011;133;49.626;9.680;2023-06-22T00:22:57;16.57;;;12.97;;
297;SDS011;133;49.626;9.680;2023-06-22T00:25:22;17.43;;;12.00;;
297;SDS011;133;49.626;9.680;2023-06-22T00:27:49;16.03;;;12.67;;
297;SDS011;133;49.626;9.680;2023-06-22T00:30:15;16.40;;;12.00;;
297;SDS011;133;49.626;9.680;2023-06-22T00:32:42;16.20;;;12.53;;
297;SDS011;133;49.626;9.680;2023-06-22T00:35:08;16.80;;;12.23;;
297;SDS011;133;49.626;9.680;2023-06-22T00:37:35;13.27;;;11.60;;
297;SDS011;133;49.626;9.680;2023-06-22T00:40:01;15.13;;;12.40;;
297;SDS011;133;49.626;9.680;2023-06-22T00:42:28;14.30;;;12.23;;
297;SDS011;133;49.626;9.680;2023-06-22T00:44:54;18.40;;;12.83;;
297;SDS011;133;49.626;9.680;2023-06-22T00:47:20;15.13;;;11.90;;
297;SDS011;133;49.626;9.680;2023-06-22T00:49:47;16.97;;;11.87;;
297;SDS011;133;49.626;9.680;2023-06-22T00:52:16;18.47;;;14.07;;
297;SDS011;133;49.626;9.680;2023-06-22T00:54:46;16.17;;;12.70;;
297;SDS011;133;49.626;9.680;2023-06-22T00:57:15;12.80;;;12.13;;
297;SDS011;133;49.626;9.680;2023-06-22T00:59:42;14.17;;;13.23;;
297;SDS011;133;49.626;9.680;2023-06-22T01:02:12;16.47;;;13.57;;
297;SDS011;133;49.626;9.680;2023-06-22T01:04:39;19.50;;;13.00;;
297;SDS011;133;49.626;9.680;2023-06-22T01:09:45;17.10;;;13.23;;
297;SDS011;133;49.626;9.680;2023-06-22T01:12:25;15.90;;;13.13;;
297;SDS011;133;49.626;9.680;2023-06-22T01:14:58;14.33;;;13.07;;
297;SDS011;133;49.626;9.680;2023-06-22T01:17:33;15.40;;;13.80;;
297;SDS011;133;49.626;9.680;2023-06-22T01:20:00;14.73;;;13.07;;
297;SDS011;133;49.626;9.680;2023-06-22T01:22:30;17.73;;;12.87;;
297;SDS011;133;49.626;9.680;2023-06-22T01:25:08;13.73;;;11.07;;
297;SDS011;133;49.626;9.680;2023-06-22T01:27:47;13.90;;;11.57;;
297;SDS011;133;49.626;9.680;2023-06-22T01:30:21;18.50;;;12.13;;
297;SDS011;133;49.626;9.680;2023-06-22T01:32:50;14.90;;;12.23;;
297;SDS011;133;49.626;9.680;2023-06-22T01:35:17;17.40;;;14.13;;
297;SDS011;133;49.626;9.680;2023-06-22T01:37:44;19.13;;;14.10;;
297;SDS011;133;49.626;9.680;2023-06-22T01:40:10;18.33;;;14.20;;
297;SDS011;133;49.626;9.680;2023-06-22T01:42:37;27.77;;;15.57;;
297;SDS011;133;49.626;9.680;2023-06-22T01:45:03;19.93;;;14.40;;
297;SDS011;133;49.626;9.680;2023-06-22T01:47:30;20.83;;;15.70;;
297;SDS011;133;49.626;9.680;2023-06-22T01:49:56;19.60;;;13.97;;
297;SDS011;133;49.626;9.680;2023-06-22T01:52:22;21.50;;;14.93;;
297;SDS011;133;49.626;9.680;2023-06-22T01:54:48;25.40;;;17.30;;
297;SDS011;133;49.626;9.680;2023-06-22T01:57:14;19.00;;;14.40;;
297;SDS011;133;49.626;9.680;2023-06-22T02:05:47;20.63;;;13.73;;
297;SDS011;133;49.626;9.680;2023-06-22T02:08:20;21.60;;;15.73;;
297;SDS011;133;49.626;9.680;2023-06-22T02:10:50;21.20;;;16.23;;
297;SDS011;133;49.626;9.680;2023-06-22T02:13:17;24.87;;;15.87;;
297;SDS011;133;49.626;9.680;2023-06-22T02:15:44;20.80;;;17.40;;
297;SDS011;133;49.626;9.680;2023-06-22T02:18:11;22.60;;;17.63;;
297;SDS011;133;49.626;9.680;2023-06-22T02:20:38;23.70;;;18.13;;
297;SDS011;133;49.626;9.680;2023-06-22T02:23:05;20.90;;;18.10;;
297;SDS011;133;49.626;9.680;2023-06-22T02:25:31;22.57;;;18.30;;
297;SDS011;133;49.626;9.680;2023-06-22T02:27:58;25.10;;;19.40;;
297;SDS011;133;49.626;9.680;2023-06-22T02:30:23;29.60;;;19.57;;
297;SDS011;133;49.626;9.680;2023-06-22T02:32:49;25.80;;;19.20;;
297;SDS011;133;49.626;9.680;2023-06-22T02:35:23;28.63;;;21.03;;
297;SDS011;133;49.626;9.680;2023-06-22T02:37:50;25.03;;;20.03;;
297;SDS011;133;49.626;9.680;2023-06-22T02:40:17;23.93;;;19.73;;
297;SDS011;133;49.626;9.680;2023-06-22T02:42:42;26.50;;;19.77;;
297;SDS011;133;49.626;9.680;2023-06-22T02:45:08;24.50;;;19.97;;
297;SDS011;133;49.626;9.680;2023-06-22T02:47:34;25.20;;;21.00;;
297;SDS011;133;49.626;9.680;2023-06-22T02:50:00;23.00;;;18.70;;
297;SDS011;133;49.626;9.680;2023-06-22T02:52:26;22.40;;;18.53;;
297;SDS011;133;49.626;9.680;2023-06-22T02:54:51;29.50;;;19.30;;
297;SDS011;133;49.626;9.680;2023-06-22T02:57:17;20.83;;;17.83;;
297;SDS011;133;49.626;9.680;2023-06-22T02:59:43;23.60;;;18.90;;
297;SDS011;133;49.626;9.680;2023-06-22T03:02:09;24.00;;;19.33;;
297;SDS011;133;49.626;9.680;2023-06-22T03:04:35;26.07;;;18.70;;
297;SDS011;133;49.626;9.680;2023-06-22T03:07:01;19.27;;;17.17;;
297;SDS011;133;49.626;9.680;2023-06-22T03:09:27;20.57;;;17.47;;
297;SDS011;133;49.626;9.680;2023-06-22T03:11:56;27.90;;;19.57;;
297;SDS011;133;49.626;9.680;2023-06-22T03:14:22;19.53;;;17.97;;
297;SDS011;133;49.626;9.680;2023-06-22T03:16:48;24.27;;;17.87;;
297;SDS011;133;49.626;9.680;2023-06-22T03:19:13;24.00;;;18.10;;
297;SDS011;133;49.626;9.680;2023-06-22T03:21:39;21.70;;;17.10;;
297;SDS011;133;49.626;9.680;2023-06-22T03:24:05;20.93;;;17.77;;
297;SDS011;133;49.626;9.680;2023-06-22T03:26:32;21.17;;;17.90;;
297;SDS011;133;49.626;9.680;2023-06-22T03:28:58;23.50;;;17.00;;
297;SDS011;133;49.626;9.680;2023-06-22T03:31:24;23.70;;;16.77;;
297;SDS011;133;49.626;9.680;2023-06-22T03:33:49;25.20;;;19.77;;
297;SDS011;133;49.626;9.680;2023-06-22T03:36:15;21.50;;;19.10;;
297;SDS011;133;49.626;9.680;2023-06-22T03:38:45;27.17;;;20.20;;
297;SDS011;133;49.626;9.680;2023-06-22T03:41:12;24.97;;;18.40;;
297;SDS011;133;49.626;9.680;2023-06-22T03:43:38;21.77;;;17.83;;
297;SDS011;133;49.626;9.680;2023-06-22T03:46:04;24.43;;;18.10;;
297;SDS011;133;49.626;9.680;2023-06-22T03:48:30;20.67;;;18.33;;
297;SDS011;133;49.626;9.680;2023-06-22T03:50:56;18.03;;;16.50;;
297;SDS011;133;49.626;9.680;2023-06-22T03:53:21;22.20;;;19.07;;
297;SDS011;133;49.626;9.680;2023-06-22T03:55:48;21.83;;;16.70;;
297;SDS011;133;49.626;9.680;2023-06-22T03:58:15;23.20;;;19.20;;
297;SDS011;133;49.626;9.680;2023-06-22T04:00:43;26.23;;;19.40;;
297;SDS011;133;49.626;9.680;2023-06-22T04:03:16;26.90;;;18.47;;
297;SDS011;133;49.626;9.680;2023-06-22T04:05:45;24.50;;;18.83;;
297;SDS011;133;49.626;9.680;2023-06-22T04:08:11;23.87;;;17.77;;
297;SDS011;133;49.626;9.680;2023-06-22T04:10:38;19.90;;;18.23;;
297;SDS011;133;49.626;9.680;2023-06-22T04:13:03;22.40;;;16.93;;
297;SDS011;133;49.626;9.680;2023-06-22T04:15:29;24.13;;;19.23;;
297;SDS011;133;49.626;9.680;2023-06-22T04:17:55;21.77;;;19.23;;
297;SDS011;133;49.626;9.680;2023-06-22T04:20:21;21.63;;;18.53;;
297;SDS011;133;49.626;9.680;2023-06-22T04:22:47;24.73;;;19.00;;
297;SDS011;133;49.626;9.680;2023-06-22T04:25:13;23.50;;;18.13;;
297;SDS011;133;49.626;9.680;2023-06-22T04:27:39;20.53;;;19.00;;
297;SDS011;133;49.626;9.680;2023-06-22T04:30:08;22.70;;;19.33;;
297;SDS011;133;49.626;9.680;2023-06-22T04:32:34;20.07;;;17.40;;
297;SDS011;133;49.626;9.680;2023-06-22T04:35:04;23.53;;;18.13;;
297;SDS011;133;49.626;9.680;2023-06-22T04:37:31;22.70;;;19.90;;
297;SDS011;133;49.626;9.680;2023-06-22T04:39:57;29.57;;;22.17;;
297;SDS011;133;49.626;9.680;2023-06-22T04:42:23;29.07;;;19.57;;
297;SDS011;133;49.626;9.680;2023-06-22T04:44:50;21.73;;;17.33;;
297;SDS011;133;49.626;9.680;2023-06-22T04:47:16;19.30;;;17.50;;
297;SDS011;133;49.626;9.680;2023-06-22T04:49:42;19.67;;;17.10;;
297;SDS011;133;49.626;9.680;2023-06-22T04:52:09;24.70;;;17.83;;
297;SDS011;133;49.626;9.680;2023-06-22T04:54:36;20.93;;;17.47;;
297;SDS011;133;49.626;9.680;2023-06-22T04:57:03;21.17;;;17.07;;
297;SDS011;133;49.626;9.680;2023-06-22T04:59:34;26.53;;;19.20;;
297;SDS011;133;49.626;9.680;2023-06-22T05:02:01;22.10;;;20.33;;
297;SDS011;133;49.626;9.680;2023-06-22T05:04:28;21.43;;;19.30;;
297;SDS011;133;49.626;9.680;2023-06-22T05:06:56;22.77;;;16.73;;
297;SDS011;133;49.626;9.680;2023-06-22T05:09:23;21.80;;;18.50;;
297;SDS011;133;49.626;9.680;2023-06-22T05:11:50;23.23;;;19.87;;
297;SDS011;133;49.626;9.680;2023-06-22T05:14:16;20.33;;;18.20;;
297;SDS011;133;49.626;9.680;2023-06-22T05:16:43;31.27;;;24.53;;
297;SDS011;133;49.626;9.680;2023-06-22T05:19:09;23.67;;;19.70;;
297;SDS011;133;49.626;9.680;2023-06-22T05:21:35;22.70;;;20.63;;
297;SDS011;133;49.626;9.680;2023-06-22T05:24:01;23.50;;;18.80;;
297;SDS011;133;49.626;9.680;2023-06-22T05:26:28;24.10;;;22.03;;
297;SDS011;133;49.626;9.680;2023-06-22T05:28:55;20.07;;;17.80;;
297;SDS011;133;49.626;9.680;2023-06-22T05:31:22;20.70;;;16.97;;
297;SDS011;133;49.626;9.680;2023-06-22T05:33:48;22.00;;;18.60;;
297;SDS011;133;49.626;9.680;2023-06-22T05:36:16;20.50;;;18.50;;
297;SDS011;133;49.626;9.680;2023-06-22T05:38:42;24.07;;;19.93;;
297;SDS011;133;49.626;9.680;2023-06-22T05:41:07;21.70;;;19.87;;
297;SDS011;133;49.626;9.680;2023-06-22T05:43:33;22.43;;;18.13;;
297;SDS011;133;49.626;9.680;2023-06-22T05:46:04;21.80;;;20.30;;
297;SDS011;133;49.626;9.680;2023-06-22T05:48:30;25.40;;;20.57;;
297;SDS011;133;49.626;9.680;2023-06-22T05:50:56;26.23;;;18.40;;
297;SDS011;133;49.626;9.680;2023-06-22T05:53:21;23.87;;;19.30;;
297;SDS011;133;49.626;9.680;2023-06-22T05:55:47;21.67;;;17.93;;
297;SDS011;133;49.626;9.680;2023-06-22T05:58:13;18.93;;;17.57;;
297;SDS011;133;49.626;9.680;2023-06-22T06:00:39;19.43;;;17.20;;
297;SDS011;133;49.626;9.680;2023-06-22T06:03:06;20.17;;;16.47;;
297;SDS011;133;49.626;9.680;2023-06-22T06:05:32;22.67;;;18.50;;
297;SDS011;133;49.626;9.680;2023-06-22T06:08:02;20.43;;;17.43;;
297;SDS011;133;49.626;9.680;2023-06-22T06:10:30;22.03;;;16.77;;
297;SDS011;133;49.626;9.680;2023-06-22T06:12:57;19.30;;;15.60;;
297;SDS011;133;49.626;9.680;2023-06-22T06:15:23;20.37;;;18.00;;
297;SDS011;133;49.626;9.680;2023-06-22T06:17:49;20.90;;;18.00;;
297;SDS011;133;49.626;9.680;2023-06-22T06:20:17;18.10;;;16.17;;
297;SDS011;133;49.626;9.680;2023-06-22T06:22:44;21.07;;;17.87;;
297;SDS011;133;49.626;9.680;2023-06-22T06:25:10;17.73;;;16.63;;
297;SDS011;133;49.626;9.680;2023-06-22T06:27:40;21.07;;;16.80;;
297;SDS011;133;49.626;9.680;2023-06-22T06:30:09;18.10;;;16.17;;
297;SDS011;133;49.626;9.680;2023-06-22T06:32:36;21.57;;;17.97;;
297;SDS011;133;49.626;9.680;2023-06-22T06:35:02;26.03;;;18.77;;
297;SDS011;133;49.626;9.680;2023-06-22T06:37:32;22.70;;;18.00;;
297;SDS011;133;49.626;9.680;2023-06-22T06:40:03;18.73;;;17.00;;
297;SDS011;133;49.626;9.680;2023-06-22T06:42:31;23.63;;;19.17;;
297;SDS011;133;49.626;9.680;2023-06-22T06:44:57;24.77;;;17.53;;
297;SDS011;133;49.626;9.680;2023-06-22T06:47:24;19.87;;;16.90;;
297;SDS011;133;49.626;9.680;2023-06-22T06:49:50;22.37;;;18.30;;
297;SDS011;133;49.626;9.680;2023-06-22T06:52:15;20.40;;;15.80;;
297;SDS011;133;49.626;9.680;2023-06-22T06:54:41;19.33;;;17.43;;
297;SDS011;133;49.626;9.680;2023-06-22T06:57:07;18.07;;;15.63;;
297;SDS011;133;49.626;9.680;2023-06-22T06:59:35;18.80;;;16.70;;
297;SDS011;133;49.626;9.680;2023-06-22T07:02:01;21.20;;;17.70;;
297;SDS011;133;49.626;9.680;2023-06-22T07:04:27;20.20;;;17.47;;
297;SDS011;133;49.626;9.680;2023-06-22T07:06:53;18.90;;;17.33;;
297;SDS011;133;49.626;9.680;2023-06-22T07:09:18;21.10;;;15.67;;
297;SDS011;133;49.626;9.680;2023-06-22T07:11:44;17.90;;;16.17;;
297;SDS011;133;49.626;9.680;2023-06-22T07:14:10;16.40;;;15.37;;
297;SDS011;133;49.626;9.680;2023-06-22T07:16:36;16.97;;;16.07;;
297;SDS011;133;49.626;9.680;2023-06-22T07:19:01;19.57;;;15.63;;
297;SDS011;133;49.626;9.680;2023-06-22T07:21:27;17.73;;;14.93;;
297;SDS011;133;49.626;9.680;2023-06-22T07:23:53;16.20;;;15.10;;
297;SDS011;133;49.626;9.680;2023-06-22T07:26:19;17.90;;;16.60;;
297;SDS011;133;49.626;9.680;2023-06-22T07:28:45;19.13;;;15.57;;
297;SDS011;133;49.626;9.680;2023-06-22T07:31:11;18.07;;;16.00;;
297;SDS011;133;49.626;9.680;2023-06-22T07:33:37;17.63;;;15.43;;
297;SDS011;133;49.626;9.680;2023-06-22T07:36:02;14.93;;;13.53;;
297;SDS011;133;49.626;9.680;2023-06-22T07:38:32;18.33;;;15.43;;
297;SDS011;133;49.626;9.680;2023-06-22T07:40:59;17.50;;;15.17;;
297;SDS011;133;49.626;9.680;2023-06-22T07:43:35;18.47;;;16.33;;
297;SDS011;133;49.626;9.680;2023-06-22T07:46:04;17.83;;;15.03;;
297;SDS011;133;49.626;9.680;2023-06-22T07:48:30;15.50;;;14.70;;
297;SDS011;133;49.626;9.680;2023-06-22T07:50:56;17.63;;;14.83;;
297;SDS011;133;49.626;9.680;2023-06-22T07:53:22;20.80;;;16.23;;
297;SDS011;133;49.626;9.680;2023-06-22T07:55:49;17.80;;;15.37;;
297;SDS011;133;49.626;9.680;2023-06-22T07:58:15;15.73;;;14.80;;
297;SDS011;133;49.626;9.680;2023-06-22T08:00:41;15.93;;;14.50;;
297;SDS011;133;49.626;9.680;2023-06-22T08:03:07;17.10;;;14.93;;
297;SDS011;133;49.626;9.680;2023-06-22T08:05:32;15.60;;;14.40;;
297;SDS011;133;49.626;9.680;2023-06-22T08:07:58;15.37;;;14.57;;
297;SDS011;133;49.626;9.680;2023-06-22T08:10:24;15.63;;;14.83;;
297;SDS011;133;49.626;9.680;2023-06-22T08:12:50;16.00;;;14.57;;
297;SDS011;133;49.626;9.680;2023-06-22T08:15:17;18.57;;;14.30;;
297;SDS011;133;49.626;9.680;2023-06-22T08:17:44;16.97;;;15.27;;
297;SDS011;133;49.626;9.680;2023-06-22T08:20:10;17.80;;;15.00;;
297;SDS011;133;49.626;9.680;2023-06-22T08:22:37;17.63;;;14.00;;
297;SDS011;133;49.626;9.680;2023-06-22T08:25:03;20.73;;;14.30;;
297;SDS011;133;49.626;9.680;2023-06-22T08:27:30;17.30;;;13.93;;
297;SDS011;133;49.626;9.680;2023-06-22T08:29:59;14.10;;;12.90;;
297;SDS011;133;49.626;9.680;2023-06-22T08:32:26;13.53;;;12.80;;
297;SDS011;133;49.626;9.680;2023-06-22T08:34:54;14.63;;;13.43;;
297;SDS011;133;49.626;9.680;2023-06-22T08:37:21;15.27;;;12.60;;
297;SDS011;133;49.626;9.680;2023-06-22T08:39:55;16.53;;;12.93;;
297;SDS011;133;49.626;9.680;2023-06-22T08:42:24;13.50;;;12.80;;
297;SDS011;133;49.626;9.680;2023-06-22T08:44:50;13.03;;;12.13;;
297;SDS011;133;49.626;9.680;2023-06-22T08:47:16;11.23;;;10.63;;
297;SDS011;133;49.626;9.680;2023-06-22T08:49:42;10.73;;;10.00;;
297;SDS011;133;49.626;9.680;2023-06-22T08:52:10;11.67;;;9.87;;
297;SDS011;133;49.626;9.680;2023-06-22T08:54:36;10.77;;;10.17;;
297;SDS011;133;49.626;9.680;2023-06-22T08:57:02;9.50;;;9.00;;
297;SDS011;133;49.626;9.680;2023-06-22T08:59:28;9.40;;;8.90;;
297;SDS011;133;49.626;9.680;2023-06-22T09:01:54;9.43;;;8.93;;
297;SDS011;133;49.626;9.680;2023-06-22T09:04:20;9.63;;;9.13;;
297;SDS011;133;49.626;9.680;2023-06-22T09:06:47;9.32;;;8.88;;
297;SDS011;133;49.626;9.680;2023-06-22T09:09:17;7.85;;;7.45;;
297;SDS011;133;49.626;9.680;2023-06-22T09:11:44;9.35;;;8.07;;
297;SDS011;133;49.626;9.680;2023-06-22T09:14:10;9.68;;;9.18;;
297;SDS011;133;49.626;9.680;2023-06-22T09:16:39;8.57;;;8.07;;
297;SDS011;133;49.626;9.680;2023-06-22T09:19:11;8.07;;;7.68;;
297;SDS011;133;49.626;9.680;2023-06-22T09:21:37;9.95;;;9.45;;
297;SDS011;133;49.626;9.680;2023-06-22T09:24:03;7.82;;;7.43;;
297;SDS011;133;49.626;9.680;2023-06-22T09:26:29;9.18;;;8.07;;
297;SDS011;133;49.626;9.680;2023-06-22T09:28:55;7.40;;;7.00;;
297;SDS011;133;49.626;9.680;2023-06-22T09:31:20;7.55;;;7.15;;
297;SDS011;133;49.626;9.680;2023-06-22T09:33:52;8.73;;;7.53;;
297;SDS011;133;49.626;9.680;2023-06-22T09:36:21;7.75;;;7.35;;
297;SDS011;133;49.626;9.680;2023-06-22T09:38:47;7.60;;;7.20;;
297;SDS011;133;49.626;9.680;2023-06-22T09:41:13;7.13;;;6.72;;
297;SDS011;133;49.626;9.680;2023-06-22T09:43:39;8.45;;;7.18;;
297;SDS011;133;49.626;9.680;2023-06-22T09:46:05;6.70;;;6.30;;
297;SDS011;133;49.626;9.680;2023-06-22T09:48:32;9.07;;;7.10;;
297;SDS011;133;49.626;9.680;2023-06-22T09:50:58;7.88;;;6.70;;
297;SDS011;133;49.626;9.680;2023-06-22T09:53:27;7.13;;;6.07;;
297;SDS011;133;49.626;9.680;2023-06-22T09:55:56;6.88;;;6.47;;
297;SDS011;133;49.626;9.680;2023-06-22T09:58:24;6.32;;;5.90;;
297;SDS011;133;49.626;9.680;2023-06-22T10:00:53;6.43;;;6.00;;
297;SDS011;133;49.626;9.680;2023-06-22T10:03:19;6.43;;;6.07;;
297;SDS011;133;49.626;9.680;2023-06-22T10:05:48;8.77;;;6.53;;
297;SDS011;133;49.626;9.680;2023-06-22T10:08:17;7.63;;;6.53;;
297;SDS011;133;49.626;9.680;2023-06-22T10:10:43;6.78;;;6.38;;
297;SDS011;133;49.626;9.680;2023-06-22T10:13:09;7.20;;;6.65;;
297;SDS011;133;49.626;9.680;2023-06-22T10:15:36;6.97;;;6.57;;
297;SDS011;133;49.626;9.680;2023-06-22T10:18:02;7.35;;;5.88;;
297;SDS011;133;49.626;9.680;2023-06-22T10:20:28;6.30;;;5.95;;
297;SDS011;133;49.626;9.680;2023-06-22T10:22:54;7.00;;;6.60;;
297;SDS011;133;49.626;9.680;2023-06-22T10:25:20;6.40;;;6.03;;
297;SDS011;133;49.626;9.680;2023-06-22T10:27:53;6.30;;;5.95;;
297;SDS011;133;49.626;9.680;2023-06-22T10:30:19;6.60;;;6.20;;
297;SDS011;133;49.626;9.680;2023-06-22T10:32:46;5.53;;;5.22;;
297;SDS011;133;49.626;9.680;2023-06-22T10:35:15;7.13;;;5.45;;
297;SDS011;133;49.626;9.680;2023-06-22T10:37:44;6.53;;;6.13;;
297;SDS011;133;49.626;9.680;2023-06-22T10:40:11;8.15;;;6.03;;
297;SDS011;133;49.626;9.680;2023-06-22T10:42:38;6.28;;;5.25;;
297;SDS011;133;49.626;9.680;2023-06-22T10:45:04;6.43;;;5.53;;
297;SDS011;133;49.626;9.680;2023-06-22T10:47:30;5.88;;;5.05;;
297;SDS011;133;49.626;9.680;2023-06-22T10:49:56;5.72;;;5.43;;
297;SDS011;133;49.626;9.680;2023-06-22T10:52:22;5.72;;;5.43;;
297;SDS011;133;49.626;9.680;2023-06-22T10:54:48;5.60;;;5.30;;
297;SDS011;133;49.626;9.680;2023-06-22T10:57:13;5.60;;;5.30;;
297;SDS011;133;49.626;9.680;2023-06-22T10:59:39;5.55;;;5.30;;
297;SDS011;133;49.626;9.680;2023-06-22T11:02:05;8.85;;;5.72;;
297;SDS011;133;49.626;9.680;2023-06-22T11:04:31;5.45;;;5.15;;
297;SDS011;133;49.626;9.680;2023-06-22T11:06:57;6.28;;;5.45;;
297;SDS011;133;49.626;9.680;2023-06-22T11:09:22;6.07;;;5.18;;
297;SDS011;133;49.626;9.680;2023-06-22T11:11:48;7.82;;;5.68;;
297;SDS011;133;49.626;9.680;2023-06-22T11:14:16;10.38;;;5.80;;
297;SDS011;133;49.626;9.680;2023-06-22T11:16:41;7.05;;;5.25;;
297;SDS011;133;49.626;9.680;2023-06-22T11:19:07;6.93;;;6.20;;
297;SDS011;133;49.626;9.680;2023-06-22T11:21:33;10.80;;;5.90;;
297;SDS011;133;49.626;9.680;2023-06-22T11:24:01;5.95;;;5.65;;
297;SDS011;133;49.626;9.680;2023-06-22T11:26:27;8.25;;;6.25;;
297;SDS011;133;49.626;9.680;2023-06-22T11:28:53;7.07;;;6.00;;
297;SDS011;133;49.626;9.680;2023-06-22T11:31:19;8.45;;;6.38;;
297;SDS011;133;49.626;9.680;2023-06-22T11:33:45;7.78;;;5.93;;
297;SDS011;133;49.626;9.680;2023-06-22T11:36:12;8.52;;;6.00;;
297;SDS011;133;49.626;9.680;2023-06-22T11:38:37;6.90;;;5.97;;
297;SDS011;133;49.626;9.680;2023-06-22T11:41:07;7.05;;;6.00;;
297;SDS011;133;49.626;9.680;2023-06-22T11:43:33;7.43;;;5.82;;
297;SDS011;133;49.626;9.680;2023-06-22T11:46:00;8.07;;;6.55;;
297;SDS011;133;49.626;9.680;2023-06-22T11:48:28;7.93;;;6.15;;
297;SDS011;133;49.626;9.680;2023-06-22T11:50:53;9.23;;;6.07;;
297;SDS011;133;49.626;9.680;2023-06-22T11:53:20;7.80;;;5.43;;
297;SDS011;133;49.626;9.680;2023-06-22T11:55:50;7.35;;;5.35;;
297;SDS011;133;49.626;9.680;2023-06-22T11:58:16;7.68;;;5.53;;
297;SDS011;133;49.626;9.680;2023-06-22T12:00:42;10.15;;;6.10;;
297;SDS011;133;49.626;9.680;2023-06-22T12:03:34;9.25;;;6.22;;
297;SDS011;133;49.626;9.680;2023-06-22T12:06:03;12.65;;;6.85;;
297;SDS011;133;49.626;9.680;2023-06-22T12:08:28;6.82;;;5.55;;
297;SDS011;133;49.626;9.680;2023-06-22T12:10:54;7.50;;;5.60;;
297;SDS011;133;49.626;9.680;2023-06-22T12:13:26;12.30;;;5.88;;
297;SDS011;133;49.626;9.680;2023-06-22T12:15:58;8.25;;;6.00;;
297;SDS011;133;49.626;9.680;2023-06-22T12:18:23;10.75;;;6.05;;
297;SDS011;133;49.626;9.680;2023-06-22T12:20:50;7.85;;;6.05;;
297;SDS011;133;49.626;9.680;2023-06-22T12:23:15;10.30;;;6.05;;
297;SDS011;133;49.626;9.680;2023-06-22T12:25:44;7.57;;;6.22;;
297;SDS011;133;49.626;9.680;2023-06-22T12:28:10;8.70;;;6.10;;
297;SDS011;133;49.626;9.680;2023-06-22T12:30:36;10.70;;;6.45;;
297;SDS011;133;49.626;9.680;2023-06-22T12:33:02;9.73;;;6.53;;
297;SDS011;133;49.626;9.680;2023-06-22T12:35:28;8.40;;;6.33;;
297;SDS011;133;49.626;9.680;2023-06-22T12:37:56;8.90;;;6.17;;
297;SDS011;133;49.626;9.680;2023-06-22T12:40:22;9.33;;;6.13;;
297;SDS011;133;49.626;9.680;2023-06-22T12:42:48;10.23;;;6.67;;
297;SDS011;133;49.626;9.680;2023-06-22T12:45:14;12.07;;;6.70;;
297;SDS011;133;49.626;9.680;2023-06-22T12:47:40;13.20;;;6.97;;
297;SDS011;133;49.626;9.680;2023-06-22T12:50:06;10.37;;;7.20;;
297;SDS011;133;49.626;9.680;2023-06-22T12:52:33;10.90;;;7.20;;
297;SDS011;133;49.626;9.680;2023-06-22T12:54:58;14.20;;;7.30;;
297;SDS011;133;49.626;9.680;2023-06-22T12:57:24;12.47;;;7.73;;
297;SDS011;133;49.626;9.680;2023-06-22T12:59:50;10.67;;;7.00;;
297;SDS011;133;49.626;9.680;2023-06-22T13:02:25;10.20;;;7.33;;
297;SDS011;133;49.626;9.680;2023-06-22T13:04:51;11.27;;;7.40;;
297;SDS011;133;49.626;9.680;2023-06-22T13:07:17;8.00;;;6.57;;
297;SDS011;133;49.626;9.680;2023-06-22T13:09:43;13.47;;;7.90;;
297;SDS011;133;49.626;9.680;2023-06-22T13:12:11;15.07;;;7.57;;
297;SDS011;133;49.626;9.680;2023-06-22T13:14:53;9.57;;;7.40;;
297;SDS011;133;49.626;9.680;2023-06-22T13:17:19;8.00;;;6.67;;
297;SDS011;133;49.626;9.680;2023-06-22T13:19:48;7.70;;;6.50;;
297;SDS011;133;49.626;9.680;2023-06-22T13:25:28;13.00;;;7.20;;
297;SDS011;133;49.626;9.680;2023-06-22T13:27:54;10.37;;;7.50;;
297;SDS011;133;49.626;9.680;2023-06-22T13:30:20;14.63;;;7.70;;
297;SDS011;133;49.626;9.680;2023-06-22T13:32:48;13.40;;;6.97;;
297;SDS011;133;49.626;9.680;2023-06-22T13:35:17;9.07;;;6.90;;
297;SDS011;133;49.626;9.680;2023-06-22T13:37:43;7.10;;;6.73;;
297;SDS011;133;49.626;9.680;2023-06-22T13:40:10;7.83;;;6.73;;
297;SDS011;133;49.626;9.680;2023-06-22T13:42:36;11.97;;;6.97;;
297;SDS011;133;49.626;9.680;2023-06-22T13:45:02;11.90;;;7.00;;
297;SDS011;133;49.626;9.680;2023-06-22T13:47:28;10.57;;;7.20;;
297;SDS011;133;49.626;9.680;2023-06-22T13:49:54;9.80;;;6.80;;
297;SDS011;133;49.626;9.680;2023-06-22T13:52:20;15.53;;;6.90;;
297;SDS011;133;49.626;9.680;2023-06-22T13:57:43;11.33;;;7.00;;
297;SDS011;133;49.626;9.680;2023-06-22T14:00:09;11.63;;;7.63;;
297;SDS011;133;49.626;9.680;2023-06-22T14:02:37;10.70;;;7.53;;
297;SDS011;133;49.626;9.680;2023-06-22T14:05:24;12.83;;;7.00;;
297;SDS011;133;49.626;9.680;2023-06-22T14:07:50;11.83;;;6.90;;
297;SDS011;133;49.626;9.680;2023-06-22T14:13:17;11.27;;;7.33;;
297;SDS011;133;49.626;9.680;2023-06-22T14:16:12;8.37;;;6.93;;
297;SDS011;133;49.626;9.680;2023-06-22T14:18:58;10.23;;;7.20;;
297;SDS011;133;49.626;9.680;2023-06-22T14:21:25;7.83;;;6.40;;
297;SDS011;133;49.626;9.680;2023-06-22T14:24:11;8.80;;;6.37;;
297;SDS011;133;49.626;9.680;2023-06-22T14:27:17;9.27;;;6.83;;
297;SDS011;133;49.626;9.680;2023-06-22T14:29:43;7.67;;;6.20;;
297;SDS011;133;49.626;9.680;2023-06-22T14:32:11;11.10;;;6.83;;
297;SDS011;133;49.626;9.680;2023-06-22T14:34:40;10.10;;;6.70;;
297;SDS011;133;49.626;9.680;2023-06-22T14:37:07;12.10;;;7.00;;
297;SDS011;133;49.626;9.680;2023-06-22T14:39:34;14.43;;;6.60;;
297;SDS011;133;49.626;9.680;2023-06-22T14:42:01;9.43;;;6.33;;
297;SDS011;133;49.626;9.680;2023-06-22T14:44:28;7.87;;;6.47;;
297;SDS011;133;49.626;9.680;2023-06-22T14:46:55;10.90;;;7.03;;
297;SDS011;133;49.626;9.680;2023-06-22T14:49:21;10.87;;;6.50;;
297;SDS011;133;49.626;9.680;2023-06-22T14:51:47;13.50;;;6.60;;
297;SDS011;133;49.626;9.680;2023-06-22T14:54:13;8.60;;;5.87;;
297;SDS011;133;49.626;9.680;2023-06-22T14:56:39;10.20;;;5.80;;
297;SDS011;133;49.626;9.680;2023-06-22T14:59:05;10.20;;;6.10;;
297;SDS011;133;49.626;9.680;2023-06-22T15:01:32;8.60;;;5.80;;
297;SDS011;133;49.626;9.680;2023-06-22T15:03:57;10.97;;;5.90;;
297;SDS011;133;49.626;9.680;2023-06-22T15:06:23;10.93;;;6.10;;
297;SDS011;133;49.626;9.680;2023-06-22T15:12:06;11.17;;;5.13;;
297;SDS011;133;49.626;9.680;2023-06-22T15:14:36;8.17;;;4.83;;
297;SDS011;133;49.626;9.680;2023-06-22T15:17:11;14.33;;;5.20;;
297;SDS011;133;49.626;9.680;2023-06-22T15:19:40;12.10;;;5.47;;
297;SDS011;133;49.626;9.680;2023-06-22T15:22:06;11.03;;;5.43;;
297;SDS011;133;49.626;9.680;2023-06-22T15:24:33;8.47;;;4.83;;
297;SDS011;133;49.626;9.680;2023-06-22T15:26:59;7.63;;;4.90;;
297;SDS011;133;49.626;9.680;2023-06-22T15:29:25;14.50;;;5.90;;
297;SDS011;133;49.626;9.680;2023-06-22T15:32:00;13.17;;;5.67;;
297;SDS011;133;49.626;9.680;2023-06-22T15:34:26;12.27;;;5.57;;
297;SDS011;133;49.626;9.680;2023-06-22T15:36:52;12.77;;;5.50;;
297;SDS011;133;49.626;9.680;2023-06-22T15:39:18;13.07;;;5.37;;
297;SDS011;133;49.626;9.680;2023-06-22T15:41:44;14.80;;;5.40;;
297;SDS011;133;49.626;9.680;2023-06-22T15:44:09;15.40;;;5.80;;
297;SDS011;133;49.626;9.680;2023-06-22T15:46:35;14.60;;;5.20;;